createdAt,value
2022-08-19T00:02:05.895Z,3.35
2022-08-19T00:07:08.263Z,3.40
2022-08-19T00:12:11.316Z,3.08
2022-08-19T00:17:13.716Z,2.97
2022-08-19T00:22:18.374Z,2.65
2022-08-19T00:27:26.349Z,2.70
2022-08-19T00:32:28.941Z,2.90
2022-08-19T00:37:34.174Z,2.55
2022-08-19T00:42:36.458Z,3.25
2022-08-19T00:47:38.804Z,2.83
2022-08-19T00:52:46.489Z,2.47
2022-08-19T00:57:55.515Z,2.40
2022-08-19T01:02:57.980Z,2.75
2022-08-19T01:08:03.410Z,3.03
2022-08-19T01:13:06.297Z,3.00
2022-08-19T01:18:13.023Z,3.38
2022-08-19T01:23:15.897Z,2.63
2022-08-19T01:28:40.030Z,3.95
2022-08-19T01:33:44.093Z,2.90
2022-08-19T01:38:47.302Z,2.88
2022-08-19T01:44:13.954Z,3.13
2022-08-19T01:49:12.625Z,3.05
2022-08-19T01:54:23.107Z,3.70
2022-08-19T01:59:31.474Z,3.40
2022-08-19T02:04:33.827Z,3.10
2022-08-19T02:09:36.529Z,3.10
2022-08-19T02:14:38.880Z,3.05
2022-08-19T02:19:41.491Z,2.67
2022-08-19T02:24:43.671Z,3.03
2022-08-19T02:29:47.703Z,2.45
2022-08-19T02:34:50.325Z,2.80
2022-08-19T02:39:52.585Z,3.00
2022-08-19T02:44:57.063Z,1.98
2022-08-19T02:49:59.277Z,2.25
2022-08-19T02:55:02.123Z,2.30
2022-08-19T03:00:08.759Z,3.05
2022-08-19T03:05:11.653Z,2.38
2022-08-19T03:10:14.156Z,2.90
2022-08-19T03:15:16.649Z,2.60
2022-08-19T03:20:18.838Z,3.63
2022-08-19T03:25:21.056Z,2.30
2022-08-19T03:30:23.410Z,2.88
2022-08-19T03:35:26.095Z,3.40
2022-08-19T03:40:28.350Z,2.90
2022-08-19T03:45:30.785Z,2.70
2022-08-19T03:50:32.972Z,2.33
2022-08-19T03:55:35.507Z,2.70
2022-08-19T04:00:37.906Z,2.50
2022-08-19T04:05:40.132Z,2.75
2022-08-19T04:10:42.997Z,2.90
2022-08-19T04:15:47.838Z,2.10
2022-08-19T04:20:50.845Z,2.35
2022-08-19T04:25:52.986Z,2.17
2022-08-19T04:30:56.713Z,2.45
2022-08-19T04:35:59.403Z,2.63
2022-08-19T04:41:23.298Z,2.85
2022-08-19T04:46:40.087Z,2.92
2022-08-19T04:51:48.801Z,2.58
2022-08-19T04:56:52.949Z,2.35
2022-08-19T05:01:55.108Z,2.90
2022-08-19T05:07:00.751Z,2.33
2022-08-19T05:12:03.935Z,2.17
2022-08-19T05:17:26.130Z,2.50
2022-08-19T05:22:35.659Z,2.72
2022-08-19T05:27:38.040Z,2.25
2022-08-19T05:32:40.864Z,2.90
2022-08-19T05:37:43.016Z,2.40
2022-08-19T05:42:45.172Z,2.70
2022-08-19T05:47:57.513Z,2.70
2022-08-19T05:52:59.648Z,3.10
2022-08-19T05:58:02.800Z,3.22
2022-08-19T06:03:09.734Z,2.75
2022-08-19T06:08:15.272Z,2.67
2022-08-19T06:13:18.427Z,2.72
2022-08-19T06:18:20.758Z,2.67
2022-08-19T06:23:24.438Z,2.95
2022-08-19T06:28:26.629Z,2.83
2022-08-19T06:33:28.767Z,2.80
2022-08-19T06:38:34.452Z,2.92
2022-08-19T06:43:38.166Z,3.05
2022-08-19T06:48:45.728Z,2.70
2022-08-19T06:58:56.793Z,3.20
2022-08-19T07:03:58.943Z,2.90
2022-08-19T07:09:01.144Z,2.47
2022-08-19T07:14:03.412Z,2.28
2022-08-19T07:19:11.873Z,2.03
2022-08-19T07:24:20.827Z,2.05
2022-08-19T07:29:25.620Z,2.10
2022-08-19T07:34:31.762Z,1.65
2022-08-19T07:39:36.702Z,1.50
2022-08-19T07:49:46.392Z,1.30
2022-08-19T07:54:48.486Z,1.20
2022-08-19T07:59:50.610Z,1.00
2022-08-19T08:05:11.148Z,0.70
2022-08-19T08:10:21.038Z,0.60
2022-08-19T08:15:25.136Z,0.47
2022-08-19T08:20:27.322Z,0.52
2022-08-19T08:25:32.334Z,0.68
2022-08-19T08:30:36.925Z,0.57
2022-08-19T08:35:42.930Z,0.50
2022-08-19T08:40:50.887Z,0.40
2022-08-19T08:46:30.366Z,0.30
2022-08-19T08:51:38.279Z,0.32
2022-08-19T08:56:45.213Z,0.40
2022-08-19T09:01:47.631Z,0.57
2022-08-19T09:07:18.543Z,0.55
2022-08-19T09:12:57.103Z,0.90
2022-08-19T09:18:04.677Z,0.90
2022-08-19T09:23:10.485Z,0.90
2022-08-19T09:28:22.146Z,0.90
2022-08-19T09:33:24.879Z,1.13
2022-08-19T09:38:27.008Z,1.25
2022-08-19T09:43:33.793Z,1.20
2022-08-19T09:48:49.426Z,1.50
2022-08-19T09:53:54.675Z,1.23
2022-08-19T09:58:58.881Z,1.15
2022-08-19T10:04:06.372Z,1.30
2022-08-19T10:09:17.837Z,1.17
2022-08-19T10:14:36.119Z,1.45
2022-08-19T10:19:39.099Z,1.38
2022-08-19T10:24:42.347Z,1.45
2022-08-19T10:29:46.309Z,5.10
2022-08-19T10:34:50.224Z,2.33
2022-08-19T10:39:59.548Z,1.25
2022-08-19T10:45:02.491Z,1.30
2022-08-19T10:50:28.800Z,1.10
2022-08-19T10:55:51.076Z,1.85
2022-08-19T11:01:00.144Z,2.08
2022-08-19T11:06:05.525Z,3.90
2022-08-19T11:11:08.463Z,4.75
2022-08-19T11:16:15.183Z,5.90
2022-08-19T11:21:23.370Z,5.13
2022-08-19T11:26:27.452Z,4.13
2022-08-19T11:31:34.541Z,2.55
2022-08-19T11:36:40.327Z,2.03
2022-08-19T11:41:42.633Z,1.83
2022-08-19T11:46:47.427Z,1.65
2022-08-19T11:51:51.752Z,1.38
2022-08-19T11:56:57.154Z,1.60
2022-08-19T12:02:00.252Z,1.17
2022-08-19T12:07:02.906Z,1.30
2022-08-19T12:12:05.687Z,1.48
2022-08-19T12:17:09.815Z,1.40
2022-08-19T12:22:11.919Z,1.20
2022-08-19T12:27:14.125Z,1.65
2022-08-19T12:32:34.980Z,1.77
2022-08-19T12:37:37.330Z,1.30
2022-08-19T12:42:43.153Z,1.38
2022-08-19T12:47:47.625Z,1.60
2022-08-19T12:52:49.861Z,1.55
2022-08-19T12:57:52.299Z,1.67
2022-08-19T13:02:54.590Z,1.85
2022-08-19T13:07:58.905Z,1.65
2022-08-19T13:13:02.693Z,1.50
2022-08-19T13:18:05.065Z,1.70
2022-08-19T13:23:07.626Z,1.50
2022-08-19T13:28:09.816Z,1.40
2022-08-19T13:33:16.125Z,1.33
2022-08-19T13:38:22.241Z,1.50
2022-08-19T13:43:27.514Z,1.75
2022-08-19T13:48:29.874Z,1.30
2022-08-19T13:53:31.959Z,1.48
2022-08-19T13:58:34.724Z,1.90
2022-08-19T14:03:37.203Z,1.60
2022-08-19T14:08:46.087Z,1.30
2022-08-19T14:13:49.202Z,1.50
2022-08-19T14:18:51.483Z,1.92
2022-08-19T14:23:53.947Z,1.60
2022-08-19T14:28:58.828Z,1.50
2022-08-19T14:34:01.038Z,1.50
2022-08-19T14:39:03.758Z,1.98
2022-08-19T14:44:05.888Z,1.80
2022-08-19T14:49:09.305Z,1.70
2022-08-19T14:54:11.868Z,2.15
2022-08-19T14:59:14.018Z,1.48
2022-08-19T15:04:16.126Z,2.10
2022-08-19T15:09:18.347Z,1.80
2022-08-19T15:14:21.965Z,1.88
2022-08-19T15:19:24.790Z,1.95
2022-08-19T15:24:26.919Z,2.33
2022-08-19T15:29:29.394Z,1.42
2022-08-19T15:34:32.440Z,1.73
2022-08-19T15:39:34.743Z,2.03
2022-08-19T15:44:37.406Z,2.08
2022-08-19T15:49:39.591Z,2.60
2022-08-19T15:54:41.701Z,2.47
2022-08-19T16:00:03.100Z,2.45
2022-08-19T16:05:30.150Z,2.80
2022-08-19T16:10:32.596Z,2.28
2022-08-19T16:15:34.710Z,2.17
2022-08-19T16:20:36.940Z,2.05
2022-08-19T16:25:39.478Z,2.28
2022-08-19T16:30:42.951Z,2.72
2022-08-19T16:35:58.450Z,2.08
2022-08-19T16:41:02.916Z,2.85
2022-08-19T16:46:05.307Z,3.25
2022-08-19T16:51:08.645Z,2.38
2022-08-19T16:56:11.739Z,2.28
2022-08-19T17:01:14.700Z,1.90
2022-08-19T17:06:28.411Z,2.35
2022-08-19T17:11:34.192Z,2.40
2022-08-19T17:16:37.185Z,2.30
2022-08-19T17:21:40.706Z,1.95
2022-08-19T17:26:42.939Z,2.00
2022-08-19T17:31:45.257Z,2.35
2022-08-19T17:36:47.446Z,2.40
2022-08-19T17:41:50.045Z,2.17
2022-08-19T17:46:53.659Z,2.00
2022-08-19T17:51:55.924Z,2.30
2022-08-19T17:56:58.370Z,2.13
2022-08-19T18:02:00.655Z,2.17
2022-08-19T18:07:04.354Z,2.10
2022-08-19T18:12:08.307Z,2.40
2022-08-19T18:17:14.030Z,2.10
2022-08-19T18:27:33.075Z,2.05
2022-08-19T18:32:38.859Z,2.13
2022-08-19T18:43:04.060Z,1.90
2022-08-19T18:48:27.554Z,1.92
2022-08-19T18:53:33.923Z,2.33
2022-08-19T18:58:38.053Z,1.73
2022-08-19T19:03:45.319Z,1.40
2022-08-19T19:08:48.423Z,2.00
2022-08-19T19:13:50.663Z,1.38
2022-08-19T19:18:52.971Z,1.65
2022-08-19T19:23:55.947Z,1.60
2022-08-19T19:28:58.380Z,1.42
2022-08-19T19:34:01.752Z,1.48
2022-08-19T19:39:04.691Z,1.42
2022-08-19T19:44:29.987Z,1.60
2022-08-19T19:49:32.439Z,1.40
2022-08-19T19:54:36.632Z,1.40
2022-08-19T19:59:44.929Z,1.77
2022-08-19T20:04:58.814Z,1.67
2022-08-19T20:10:01.033Z,1.52
2022-08-19T20:15:04.931Z,1.58
2022-08-19T20:20:07.927Z,1.67
2022-08-19T20:25:15.378Z,1.50
2022-08-19T20:30:20.373Z,1.85
2022-08-19T20:35:23.352Z,2.00
2022-08-19T20:40:26.969Z,1.98
2022-08-19T20:45:32.482Z,2.13
2022-08-19T20:50:37.205Z,3.00
2022-08-19T20:55:39.852Z,2.30
2022-08-19T21:00:46.709Z,2.38
2022-08-19T21:05:49.514Z,2.50
2022-08-19T21:10:52.665Z,2.17
2022-08-19T21:15:55.355Z,2.33
2022-08-19T21:20:57.708Z,1.50
2022-08-19T21:26:01.276Z,2.28
2022-08-19T21:31:05.496Z,1.42
2022-08-19T21:36:08.210Z,1.73
2022-08-19T21:41:10.480Z,2.10
2022-08-19T21:46:12.718Z,2.05
2022-08-19T21:51:15.069Z,2.33
2022-08-19T21:56:19.101Z,2.55
2022-08-19T22:01:21.474Z,2.13
2022-08-19T22:06:26.068Z,1.50
2022-08-19T22:11:28.536Z,1.58
2022-08-19T22:16:30.751Z,1.67
2022-08-19T22:21:40.940Z,2.13
2022-08-19T22:26:43.475Z,1.73
2022-08-19T22:31:45.772Z,1.75
2022-08-19T22:36:57.435Z,1.85
2022-08-19T22:41:59.568Z,2.05
2022-08-19T22:47:02.344Z,1.90
2022-08-19T22:52:19.943Z,1.90
2022-08-19T22:57:22.843Z,1.77
2022-08-19T23:02:30.080Z,2.10
2022-08-19T23:07:32.651Z,1.50
2022-08-19T23:12:38.208Z,2.13
2022-08-19T23:17:43.309Z,2.28
2022-08-19T23:22:49.648Z,1.73
2022-08-19T23:28:11.230Z,1.50
2022-08-19T23:33:24.890Z,1.60
2022-08-19T23:38:29.165Z,1.70
2022-08-19T23:43:32.142Z,1.73
2022-08-19T23:48:36.930Z,1.45
2022-08-19T23:53:41.061Z,1.85
2022-08-19T23:58:43.253Z,1.80
